sensor_id;sensor_type;location;lat;lon;timestamp;temperature;humidity
2839;DHT22;1427;48.510;9.060;2022-08-27T00:01:24;20.40;99.90
2839;DHT22;1427;48.510;9.060;2022-08-27T00:03:53;20.40;99.90
2839;DHT22;1427;48.510;9.060;2022-08-27T00:06:22;20.50;99.90
2839;DHT22;1427;48.510;9.060;2022-08-27T00:08:51;20.50;99.90
2839;DHT22;1427;48.510;9.060;2022-08-27T00:11:22;20.50;99.90
2839;DHT22;1427;48.510;9.060;2022-08-27T00:13:51;20.70;99.90
2839;DHT22;1427;48.510;9.060;2022-08-27T00:16:20;20.60;99.90
2839;DHT22;1427;48.510;9.060;2022-08-27T00:18:48;20.60;99.90
2839;DHT22;1427;48.510;9.060;2022-08-27T00:21:16;20.70;99.90
2839;DHT22;1427;48.510;9.060;2022-08-27T00:23:44;20.60;99.90
2839;DHT22;1427;48.510;9.060;2022-08-27T00:26:13;20.60;99.90
2839;DHT22;1427;48.510;9.060;2022-08-27T00:28:43;20.60;99.90
2839;DHT22;1427;48.510;9.060;2022-08-27T00:31:13;20.70;99.90
2839;DHT22;1427;48.510;9.060;2022-08-27T00:33:41;20.60;99.90
2839;DHT22;1427;48.510;9.060;2022-08-27T00:36:11;20.80;99.90
2839;DHT22;1427;48.510;9.060;2022-08-27T00:38:40;20.60;99.90
2839;DHT22;1427;48.510;9.060;2022-08-27T00:41:10;20.60;99.90
2839;DHT22;1427;48.510;9.060;2022-08-27T00:43:47;20.60;99.90
2839;DHT22;1427;48.510;9.060;2022-08-27T00:46:22;20.70;99.90
2839;DHT22;1427;48.510;9.060;2022-08-27T00:48:52;20.70;99.90
2839;DHT22;1427;48.510;9.060;2022-08-27T00:51:21;20.70;99.90
2839;DHT22;1427;48.510;9.060;2022-08-27T00:53:51;20.70;99.90
2839;DHT22;1427;48.510;9.060;2022-08-27T00:56:22;20.70;99.90
2839;DHT22;1427;48.510;9.060;2022-08-27T00:58:54;20.60;99.90
2839;DHT22;1427;48.510;9.060;2022-08-27T01:01:26;20.60;99.90
2839;DHT22;1427;48.510;9.060;2022-08-27T01:03:58;20.60;99.90
2839;DHT22;1427;48.510;9.060;2022-08-27T01:06:30;20.50;99.90
2839;DHT22;1427;48.510;9.060;2022-08-27T01:09:03;20.50;99.90
2839;DHT22;1427;48.510;9.060;2022-08-27T01:11:32;20.50;99.90
2839;DHT22;1427;48.510;9.060;2022-08-27T01:14:03;20.60;99.90
2839;DHT22;1427;48.510;9.060;2022-08-27T01:16:35;20.60;99.90
2839;DHT22;1427;48.510;9.060;2022-08-27T01:19:06;20.60;99.90
2839;DHT22;1427;48.510;9.060;2022-08-27T01:21:40;20.60;99.90
2839;DHT22;1427;48.510;9.060;2022-08-27T01:24:21;20.70;99.90
2839;DHT22;1427;48.510;9.060;2022-08-27T01:26:51;20.70;99.90
2839;DHT22;1427;48.510;9.060;2022-08-27T01:29:19;20.80;99.90
2839;DHT22;1427;48.510;9.060;2022-08-27T01:31:47;20.70;99.90
2839;DHT22;1427;48.510;9.060;2022-08-27T01:34:16;20.70;99.90
2839;DHT22;1427;48.510;9.060;2022-08-27T01:36:44;20.60;99.90
2839;DHT22;1427;48.510;9.060;2022-08-27T01:39:12;20.80;99.90
2839;DHT22;1427;48.510;9.060;2022-08-27T01:41:42;20.60;99.90
2839;DHT22;1427;48.510;9.060;2022-08-27T01:44:10;20.60;99.90
2839;DHT22;1427;48.510;9.060;2022-08-27T01:46:38;20.50;99.90
2839;DHT22;1427;48.510;9.060;2022-08-27T01:49:09;20.60;99.90
2839;DHT22;1427;48.510;9.060;2022-08-27T01:51:37;20.60;99.90
2839;DHT22;1427;48.510;9.060;2022-08-27T01:54:05;20.70;99.90
2839;DHT22;1427;48.510;9.060;2022-08-27T01:56:33;20.60;99.90
2839;DHT22;1427;48.510;9.060;2022-08-27T01:59:03;20.60;99.90
2839;DHT22;1427;48.510;9.060;2022-08-27T02:01:31;20.60;99.90
2839;DHT22;1427;48.510;9.060;2022-08-27T02:03:59;20.70;99.90
2839;DHT22;1427;48.510;9.060;2022-08-27T02:06:27;20.50;99.90
2839;DHT22;1427;48.510;9.060;2022-08-27T02:08:55;20.40;99.90
2839;DHT22;1427;48.510;9.060;2022-08-27T02:11:24;20.50;99.90
2839;DHT22;1427;48.510;9.060;2022-08-27T02:13:52;20.50;99.90
2839;DHT22;1427;48.510;9.060;2022-08-27T02:16:21;20.50;99.90
2839;DHT22;1427;48.510;9.060;2022-08-27T02:18:50;20.50;99.90
2839;DHT22;1427;48.510;9.060;2022-08-27T02:21:21;20.50;99.90
2839;DHT22;1427;48.510;9.060;2022-08-27T02:23:49;20.40;99.90
2839;DHT22;1427;48.510;9.060;2022-08-27T02:26:18;20.50;99.90
2839;DHT22;1427;48.510;9.060;2022-08-27T02:28:46;20.30;99.90
2839;DHT22;1427;48.510;9.060;2022-08-27T02:31:14;20.20;99.90
2839;DHT22;1427;48.510;9.060;2022-08-27T02:33:44;20.20;99.90
2839;DHT22;1427;48.510;9.060;2022-08-27T02:36:12;20.30;99.90
2839;DHT22;1427;48.510;9.060;2022-08-27T02:38:41;20.30;99.90
2839;DHT22;1427;48.510;9.060;2022-08-27T02:41:09;20.30;99.90
2839;DHT22;1427;48.510;9.060;2022-08-27T02:43:37;20.30;99.90
2839;DHT22;1427;48.510;9.060;2022-08-27T02:46:05;20.00;99.90
2839;DHT22;1427;48.510;9.060;2022-08-27T02:48:35;20.00;99.90
2839;DHT22;1427;48.510;9.060;2022-08-27T02:51:06;19.80;99.90
2839;DHT22;1427;48.510;9.060;2022-08-27T02:53:35;19.70;99.90
2839;DHT22;1427;48.510;9.060;2022-08-27T02:56:04;19.70;99.90
2839;DHT22;1427;48.510;9.060;2022-08-27T02:58:32;19.70;99.90
2839;DHT22;1427;48.510;9.060;2022-08-27T03:01:00;19.70;99.90
2839;DHT22;1427;48.510;9.060;2022-08-27T03:03:29;19.90;99.90
2839;DHT22;1427;48.510;9.060;2022-08-27T03:05:58;19.80;99.90
2839;DHT22;1427;48.510;9.060;2022-08-27T03:08:27;19.80;99.90
2839;DHT22;1427;48.510;9.060;2022-08-27T03:11:15;19.80;99.90
2839;DHT22;1427;48.510;9.060;2022-08-27T03:13:43;20.00;99.90
2839;DHT22;1427;48.510;9.060;2022-08-27T03:16:11;20.00;99.90
2839;DHT22;1427;48.510;9.060;2022-08-27T03:18:40;20.00;99.90
2839;DHT22;1427;48.510;9.060;2022-08-27T03:21:07;20.00;99.90
2839;DHT22;1427;48.510;9.060;2022-08-27T03:23:36;20.00;99.90
2839;DHT22;1427;48.510;9.060;2022-08-27T03:26:09;19.90;99.90
2839;DHT22;1427;48.510;9.060;2022-08-27T03:28:38;19.80;99.90
2839;DHT22;1427;48.510;9.060;2022-08-27T03:31:14;19.80;99.90
2839;DHT22;1427;48.510;9.060;2022-08-27T03:33:43;19.80;99.90
2839;DHT22;1427;48.510;9.060;2022-08-27T03:36:11;19.90;99.90
2839;DHT22;1427;48.510;9.060;2022-08-27T03:38:40;19.70;99.90
2839;DHT22;1427;48.510;9.060;2022-08-27T03:41:08;19.70;99.90
2839;DHT22;1427;48.510;9.060;2022-08-27T03:43:36;19.80;99.90
2839;DHT22;1427;48.510;9.060;2022-08-27T03:46:06;19.70;99.90
2839;DHT22;1427;48.510;9.060;2022-08-27T03:48:34;19.70;99.90
2839;DHT22;1427;48.510;9.060;2022-08-27T03:51:04;19.90;99.90
2839;DHT22;1427;48.510;9.060;2022-08-27T03:53:34;19.70;99.90
2839;DHT22;1427;48.510;9.060;2022-08-27T03:56:04;19.70;99.90
2839;DHT22;1427;48.510;9.060;2022-08-27T03:58:33;19.80;99.90
2839;DHT22;1427;48.510;9.060;2022-08-27T04:01:01;19.70;99.90
2839;DHT22;1427;48.510;9.060;2022-08-27T04:03:31;19.60;99.90
2839;DHT22;1427;48.510;9.060;2022-08-27T04:05:59;19.70;99.90
2839;DHT22;1427;48.510;9.060;2022-08-27T04:08:29;19.60;99.90
2839;DHT22;1427;48.510;9.060;2022-08-27T04:10:57;19.60;99.90
2839;DHT22;1427;48.510;9.060;2022-08-27T04:13:26;19.70;99.90
2839;DHT22;1427;48.510;9.060;2022-08-27T04:15:54;19.60;99.90
2839;DHT22;1427;48.510;9.060;2022-08-27T04:18:23;19.60;99.90
2839;DHT22;1427;48.510;9.060;2022-08-27T04:20:53;19.70;99.90
2839;DHT22;1427;48.510;9.060;2022-08-27T04:23:22;19.70;99.90
2839;DHT22;1427;48.510;9.060;2022-08-27T04:25:51;19.80;99.90
2839;DHT22;1427;48.510;9.060;2022-08-27T04:28:18;19.80;99.90
2839;DHT22;1427;48.510;9.060;2022-08-27T04:30:48;20.00;99.90
2839;DHT22;1427;48.510;9.060;2022-08-27T04:33:16;19.90;99.90
2839;DHT22;1427;48.510;9.060;2022-08-27T04:35:44;19.90;99.90
2839;DHT22;1427;48.510;9.060;2022-08-27T04:38:12;19.90;99.90
2839;DHT22;1427;48.510;9.060;2022-08-27T04:40:41;20.00;99.90
2839;DHT22;1427;48.510;9.060;2022-08-27T04:43:27;20.00;99.90
2839;DHT22;1427;48.510;9.060;2022-08-27T04:45:56;20.00;99.90
2839;DHT22;1427;48.510;9.060;2022-08-27T04:48:27;20.10;99.90
2839;DHT22;1427;48.510;9.060;2022-08-27T04:50:55;20.00;99.90
2839;DHT22;1427;48.510;9.060;2022-08-27T04:53:23;19.80;99.90
2839;DHT22;1427;48.510;9.060;2022-08-27T04:55:54;19.80;99.90
2839;DHT22;1427;48.510;9.060;2022-08-27T04:58:23;20.00;99.90
2839;DHT22;1427;48.510;9.060;2022-08-27T05:00:54;19.90;99.90
2839;DHT22;1427;48.510;9.060;2022-08-27T05:03:23;19.90;99.90
2839;DHT22;1427;48.510;9.060;2022-08-27T05:05:52;19.90;99.90
2839;DHT22;1427;48.510;9.060;2022-08-27T05:08:25;19.90;99.90
2839;DHT22;1427;48.510;9.060;2022-08-27T05:10:53;19.90;99.90
2839;DHT22;1427;48.510;9.060;2022-08-27T05:13:22;19.90;99.90
2839;DHT22;1427;48.510;9.060;2022-08-27T05:15:57;20.00;99.90
2839;DHT22;1427;48.510;9.060;2022-08-27T05:18:27;20.00;99.90
2839;DHT22;1427;48.510;9.060;2022-08-27T05:20:56;20.20;99.90
2839;DHT22;1427;48.510;9.060;2022-08-27T05:23:25;20.30;99.90
2839;DHT22;1427;48.510;9.060;2022-08-27T05:25:55;20.40;99.90
2839;DHT22;1427;48.510;9.060;2022-08-27T05:28:25;20.20;99.90
2839;DHT22;1427;48.510;9.060;2022-08-27T05:31:01;20.20;99.90
2839;DHT22;1427;48.510;9.060;2022-08-27T05:33:31;20.20;99.90
2839;DHT22;1427;48.510;9.060;2022-08-27T05:35:59;20.10;99.90
2839;DHT22;1427;48.510;9.060;2022-08-27T05:38:29;20.10;99.90
2839;DHT22;1427;48.510;9.060;2022-08-27T05:41:04;20.10;99.90
2839;DHT22;1427;48.510;9.060;2022-08-27T05:43:33;20.00;99.90
2839;DHT22;1427;48.510;9.060;2022-08-27T05:46:03;20.00;99.90
2839;DHT22;1427;48.510;9.060;2022-08-27T05:48:34;20.10;99.90
2839;DHT22;1427;48.510;9.060;2022-08-27T05:51:08;20.20;99.90
2839;DHT22;1427;48.510;9.060;2022-08-27T05:53:37;20.00;99.90
2839;DHT22;1427;48.510;9.060;2022-08-27T05:56:11;19.90;99.90
2839;DHT22;1427;48.510;9.060;2022-08-27T05:58:39;20.00;99.90
2839;DHT22;1427;48.510;9.060;2022-08-27T06:01:25;20.00;99.90
2839;DHT22;1427;48.510;9.060;2022-08-27T06:03:54;20.10;99.90
2839;DHT22;1427;48.510;9.060;2022-08-27T06:06:23;20.10;99.90
2839;DHT22;1427;48.510;9.060;2022-08-27T06:08:52;20.10;99.90
2839;DHT22;1427;48.510;9.060;2022-08-27T06:11:21;20.00;99.90
2839;DHT22;1427;48.510;9.060;2022-08-27T06:13:50;20.10;99.90
2839;DHT22;1427;48.510;9.060;2022-08-27T06:16:18;20.10;99.90
2839;DHT22;1427;48.510;9.060;2022-08-27T06:18:49;20.20;99.90
2839;DHT22;1427;48.510;9.060;2022-08-27T06:21:19;20.20;99.90
2839;DHT22;1427;48.510;9.060;2022-08-27T06:23:51;20.20;99.90
2839;DHT22;1427;48.510;9.060;2022-08-27T06:26:21;20.20;99.90
2839;DHT22;1427;48.510;9.060;2022-08-27T06:28:49;20.20;99.90
2839;DHT22;1427;48.510;9.060;2022-08-27T06:31:19;20.20;99.90
2839;DHT22;1427;48.510;9.060;2022-08-27T06:33:49;20.30;99.90
2839;DHT22;1427;48.510;9.060;2022-08-27T06:36:21;20.50;99.90
2839;DHT22;1427;48.510;9.060;2022-08-27T06:38:51;20.50;99.90
2839;DHT22;1427;48.510;9.060;2022-08-27T06:41:22;20.60;99.90
2839;DHT22;1427;48.510;9.060;2022-08-27T06:43:53;20.60;99.90
2839;DHT22;1427;48.510;9.060;2022-08-27T06:46:24;20.80;99.90
2839;DHT22;1427;48.510;9.060;2022-08-27T06:48:53;20.70;99.90
2839;DHT22;1427;48.510;9.060;2022-08-27T06:51:25;20.80;99.90
2839;DHT22;1427;48.510;9.060;2022-08-27T06:53:54;20.90;99.90
2839;DHT22;1427;48.510;9.060;2022-08-27T06:56:23;20.90;99.90
2839;DHT22;1427;48.510;9.060;2022-08-27T06:58:52;20.90;99.90
2839;DHT22;1427;48.510;9.060;2022-08-27T07:01:22;20.90;99.90
2839;DHT22;1427;48.510;9.060;2022-08-27T07:03:53;20.90;99.90
2839;DHT22;1427;48.510;9.060;2022-08-27T07:06:25;21.00;99.90
2839;DHT22;1427;48.510;9.060;2022-08-27T07:08:55;21.00;99.90
2839;DHT22;1427;48.510;9.060;2022-08-27T07:11:24;21.20;99.90
2839;DHT22;1427;48.510;9.060;2022-08-27T07:13:53;21.10;99.90
2839;DHT22;1427;48.510;9.060;2022-08-27T07:16:23;21.30;99.90
2839;DHT22;1427;48.510;9.060;2022-08-27T07:18:54;21.50;99.90
2839;DHT22;1427;48.510;9.060;2022-08-27T07:21:29;21.50;99.90
2839;DHT22;1427;48.510;9.060;2022-08-27T07:23:58;21.60;99.90
2839;DHT22;1427;48.510;9.060;2022-08-27T07:26:31;21.70;99.90
2839;DHT22;1427;48.510;9.060;2022-08-27T07:29:00;21.70;99.90
2839;DHT22;1427;48.510;9.060;2022-08-27T07:31:28;22.10;99.90
2839;DHT22;1427;48.510;9.060;2022-08-27T07:33:56;22.00;99.90
2839;DHT22;1427;48.510;9.060;2022-08-27T07:36:24;22.30;99.90
2839;DHT22;1427;48.510;9.060;2022-08-27T07:38:54;22.40;99.90
2839;DHT22;1427;48.510;9.060;2022-08-27T07:41:27;22.20;99.90
2839;DHT22;1427;48.510;9.060;2022-08-27T07:43:57;22.50;99.90
2839;DHT22;1427;48.510;9.060;2022-08-27T07:46:44;22.60;99.90
2839;DHT22;1427;48.510;9.060;2022-08-27T07:49:15;22.60;99.90
2839;DHT22;1427;48.510;9.060;2022-08-27T07:51:43;22.50;99.90
2839;DHT22;1427;48.510;9.060;2022-08-27T07:54:13;22.50;99.90
2839;DHT22;1427;48.510;9.060;2022-08-27T07:56:42;22.50;99.90
2839;DHT22;1427;48.510;9.060;2022-08-27T07:59:21;22.50;99.90
2839;DHT22;1427;48.510;9.060;2022-08-27T08:01:50;22.60;99.90
2839;DHT22;1427;48.510;9.060;2022-08-27T08:04:18;22.60;99.90
2839;DHT22;1427;48.510;9.060;2022-08-27T08:06:49;22.90;99.90
2839;DHT22;1427;48.510;9.060;2022-08-27T08:09:19;22.90;99.90
2839;DHT22;1427;48.510;9.060;2022-08-27T08:11:50;22.90;99.90
2839;DHT22;1427;48.510;9.060;2022-08-27T08:14:19;22.90;99.90
2839;DHT22;1427;48.510;9.060;2022-08-27T08:16:47;22.90;99.90
2839;DHT22;1427;48.510;9.060;2022-08-27T08:19:16;22.80;99.90
2839;DHT22;1427;48.510;9.060;2022-08-27T08:21:44;22.70;99.90
2839;DHT22;1427;48.510;9.060;2022-08-27T08:24:12;22.70;99.90
2839;DHT22;1427;48.510;9.060;2022-08-27T08:26:41;22.70;99.90
2839;DHT22;1427;48.510;9.060;2022-08-27T08:29:09;22.80;99.90
2839;DHT22;1427;48.510;9.060;2022-08-27T08:31:43;22.60;99.90
2839;DHT22;1427;48.510;9.060;2022-08-27T08:34:16;22.80;99.90
2839;DHT22;1427;48.510;9.060;2022-08-27T08:36:45;22.90;99.90
2839;DHT22;1427;48.510;9.060;2022-08-27T08:39:21;22.80;99.90
2839;DHT22;1427;48.510;9.060;2022-08-27T08:41:52;22.90;99.90
2839;DHT22;1427;48.510;9.060;2022-08-27T08:44:26;22.80;99.90
2839;DHT22;1427;48.510;9.060;2022-08-27T08:47:01;22.70;99.90
2839;DHT22;1427;48.510;9.060;2022-08-27T08:49:37;22.50;99.90
2839;DHT22;1427;48.510;9.060;2022-08-27T08:52:12;22.40;99.90
2839;DHT22;1427;48.510;9.060;2022-08-27T08:55:02;22.30;99.90
2839;DHT22;1427;48.510;9.060;2022-08-27T08:57:38;22.10;99.90
2839;DHT22;1427;48.510;9.060;2022-08-27T09:00:10;22.00;99.90
2839;DHT22;1427;48.510;9.060;2022-08-27T09:02:39;22.00;99.90
2839;DHT22;1427;48.510;9.060;2022-08-27T09:05:11;22.00;99.90
2839;DHT22;1427;48.510;9.060;2022-08-27T09:07:44;22.10;99.90
2839;DHT22;1427;48.510;9.060;2022-08-27T09:10:20;22.10;99.90
2839;DHT22;1427;48.510;9.060;2022-08-27T09:12:52;22.20;99.90
2839;DHT22;1427;48.510;9.060;2022-08-27T09:15:25;22.20;99.90
2839;DHT22;1427;48.510;9.060;2022-08-27T09:18:04;22.20;99.90
2839;DHT22;1427;48.510;9.060;2022-08-27T09:20:33;22.20;99.90
2839;DHT22;1427;48.510;9.060;2022-08-27T09:23:08;22.30;99.90
2839;DHT22;1427;48.510;9.060;2022-08-27T09:25:40;22.20;99.90
2839;DHT22;1427;48.510;9.060;2022-08-27T09:28:13;22.30;99.90
2839;DHT22;1427;48.510;9.060;2022-08-27T09:30:59;22.30;99.90
2839;DHT22;1427;48.510;9.060;2022-08-27T09:33:27;22.20;99.90
2839;DHT22;1427;48.510;9.060;2022-08-27T09:36:16;22.10;99.90
2839;DHT22;1427;48.510;9.060;2022-08-27T09:38:51;22.10;99.90
2839;DHT22;1427;48.510;9.060;2022-08-27T09:41:31;22.10;99.90
2839;DHT22;1427;48.510;9.060;2022-08-27T09:44:09;22.20;99.90
2839;DHT22;1427;48.510;9.060;2022-08-27T09:46:37;22.20;99.90
2839;DHT22;1427;48.510;9.060;2022-08-27T09:49:10;22.20;99.90
2839;DHT22;1427;48.510;9.060;2022-08-27T09:51:40;22.30;99.90
2839;DHT22;1427;48.510;9.060;2022-08-27T09:54:09;22.10;99.90
2839;DHT22;1427;48.510;9.060;2022-08-27T09:56:40;22.00;99.90
2839;DHT22;1427;48.510;9.060;2022-08-27T09:59:21;21.90;99.90
2839;DHT22;1427;48.510;9.060;2022-08-27T10:01:52;21.80;99.90
2839;DHT22;1427;48.510;9.060;2022-08-27T10:04:24;21.80;99.90
2839;DHT22;1427;48.510;9.060;2022-08-27T10:06:53;21.80;99.90
2839;DHT22;1427;48.510;9.060;2022-08-27T10:09:27;21.70;99.90
2839;DHT22;1427;48.510;9.060;2022-08-27T10:12:00;21.70;99.90
2839;DHT22;1427;48.510;9.060;2022-08-27T10:14:35;21.50;99.90
2839;DHT22;1427;48.510;9.060;2022-08-27T10:17:11;21.40;99.90
2839;DHT22;1427;48.510;9.060;2022-08-27T10:19:50;21.20;99.90
2839;DHT22;1427;48.510;9.060;2022-08-27T10:22:32;21.10;99.90
2839;DHT22;1427;48.510;9.060;2022-08-27T10:25:10;21.10;99.90
2839;DHT22;1427;48.510;9.060;2022-08-27T10:27:49;21.20;99.90
2839;DHT22;1427;48.510;9.060;2022-08-27T10:30:21;21.20;99.90
2839;DHT22;1427;48.510;9.060;2022-08-27T10:32:59;21.00;99.90
2839;DHT22;1427;48.510;9.060;2022-08-27T10:35:35;20.90;99.90
2839;DHT22;1427;48.510;9.060;2022-08-27T10:38:22;20.70;99.90
2839;DHT22;1427;48.510;9.060;2022-08-27T10:40:55;20.70;99.90
2839;DHT22;1427;48.510;9.060;2022-08-27T10:43:39;20.70;99.90
2839;DHT22;1427;48.510;9.060;2022-08-27T10:46:28;20.70;99.90
2839;DHT22;1427;48.510;9.060;2022-08-27T10:49:04;20.60;99.90
2839;DHT22;1427;48.510;9.060;2022-08-27T10:51:38;20.80;99.90
2839;DHT22;1427;48.510;9.060;2022-08-27T10:54:19;20.70;99.90
2839;DHT22;1427;48.510;9.060;2022-08-27T10:56:55;20.50;99.90
2839;DHT22;1427;48.510;9.060;2022-08-27T10:59:49;20.60;99.90
2839;DHT22;1427;48.510;9.060;2022-08-27T11:02:26;20.30;99.90
2839;DHT22;1427;48.510;9.060;2022-08-27T11:05:01;20.10;99.90
2839;DHT22;1427;48.510;9.060;2022-08-27T11:07:33;19.90;99.90
2839;DHT22;1427;48.510;9.060;2022-08-27T11:10:05;19.70;99.90
2839;DHT22;1427;48.510;9.060;2022-08-27T11:12:36;19.60;99.90
2839;DHT22;1427;48.510;9.060;2022-08-27T11:15:10;19.50;99.90
2839;DHT22;1427;48.510;9.060;2022-08-27T11:17:44;19.60;99.90
2839;DHT22;1427;48.510;9.060;2022-08-27T11:20:20;19.60;99.90
2839;DHT22;1427;48.510;9.060;2022-08-27T11:22:53;19.60;99.90
2839;DHT22;1427;48.510;9.060;2022-08-27T11:25:39;19.70;99.90
2839;DHT22;1427;48.510;9.060;2022-08-27T11:28:13;19.80;99.90
2839;DHT22;1427;48.510;9.060;2022-08-27T11:30:51;20.00;99.90
2839;DHT22;1427;48.510;9.060;2022-08-27T11:33:27;20.00;99.90
2839;DHT22;1427;48.510;9.060;2022-08-27T11:36:15;20.00;99.90
2839;DHT22;1427;48.510;9.060;2022-08-27T11:38:53;20.10;99.90
2839;DHT22;1427;48.510;9.060;2022-08-27T11:41:45;20.20;99.90
2839;DHT22;1427;48.510;9.060;2022-08-27T11:44:16;20.20;99.90
2839;DHT22;1427;48.510;9.060;2022-08-27T11:46:46;20.30;99.90
2839;DHT22;1427;48.510;9.060;2022-08-27T11:49:27;20.30;99.90
2839;DHT22;1427;48.510;9.060;2022-08-27T11:51:58;20.30;99.90
2839;DHT22;1427;48.510;9.060;2022-08-27T11:54:29;20.40;99.90
2839;DHT22;1427;48.510;9.060;2022-08-27T11:56:57;20.50;99.90
2839;DHT22;1427;48.510;9.060;2022-08-27T11:59:31;20.50;99.90
2839;DHT22;1427;48.510;9.060;2022-08-27T12:02:11;20.60;99.90
